createdAt,value
2023-02-15T00:00:11.394Z,2.00
2023-02-15T00:17:22.131Z,2.10
2023-02-15T00:19:48.713Z,2.10
2023-02-15T00:27:12.116Z,2.00
2023-02-15T00:29:39.536Z,1.90
2023-02-15T00:32:07.204Z,1.90
2023-02-15T00:44:24.366Z,1.90
2023-02-15T00:46:51.676Z,1.90
2023-02-15T00:49:18.281Z,1.90
2023-02-15T00:54:11.915Z,1.80
2023-02-15T00:56:41.704Z,1.80
2023-02-15T00:59:10.047Z,1.70
2023-02-15T01:13:55.168Z,1.60
2023-02-15T01:16:23.009Z,0.70
2023-02-15T01:21:20.341Z,1.60
2023-02-15T01:26:15.520Z,1.60
2023-02-15T01:31:16.801Z,1.50
2023-02-15T01:33:46.288Z,1.50
2023-02-15T01:43:56.179Z,1.30
2023-02-15T01:46:28.854Z,1.30
2023-02-15T01:49:02.508Z,1.30
2023-02-15T01:51:33.926Z,1.30
2023-02-15T01:54:08.364Z,1.30
2023-02-15T01:56:38.219Z,3.80
2023-02-15T01:59:09.880Z,1.10
2023-02-15T02:01:36.749Z,1.20
2023-02-15T02:04:19.818Z,1.10
2023-02-15T02:06:49.808Z,1.10
2023-02-15T02:11:47.685Z,1.00
2023-02-15T02:16:56.881Z,0.90
2023-02-15T02:22:33.832Z,0.90
2023-02-15T02:25:51.234Z,0.90
2023-02-15T02:28:53.521Z,0.90
2023-02-15T02:31:44.281Z,0.90
2023-02-15T02:34:51.818Z,0.90
2023-02-15T02:37:55.324Z,0.80
2023-02-15T02:40:38.338Z,0.80
2023-02-15T02:43:33.123Z,0.90
2023-02-15T02:46:07.561Z,0.80
2023-02-15T02:51:01.493Z,0.80
2023-02-15T02:53:32.133Z,0.80
2023-02-15T02:56:18.455Z,0.80
2023-02-15T02:58:58.024Z,0.80
2023-02-15T03:01:31.211Z,0.80
2023-02-15T03:04:03.629Z,0.80
2023-02-15T03:06:40.149Z,0.90
2023-02-15T03:09:18.149Z,0.90
2023-02-15T03:11:45.726Z,0.90
2023-02-15T03:14:17.627Z,0.90
2023-02-15T03:16:48.148Z,1.00
2023-02-15T03:19:24.466Z,0.90
2023-02-15T03:22:10.027Z,0.90
2023-02-15T03:24:47.490Z,0.90
2023-02-15T03:27:20.504Z,0.80
2023-02-15T03:29:58.948Z,0.80
2023-02-15T03:32:28.488Z,0.80
2023-02-15T03:34:56.034Z,0.80
2023-02-15T03:37:37.862Z,0.70
2023-02-15T03:40:32.148Z,0.70
2023-02-15T03:43:08.090Z,0.70
2023-02-15T03:45:36.956Z,0.70
2023-02-15T03:48:05.822Z,0.80
2023-02-15T03:50:54.797Z,0.80
2023-02-15T03:53:24.176Z,0.80
2023-02-15T03:55:55.094Z,0.80
2023-02-15T04:01:56.388Z,0.80
2023-02-15T04:04:29.095Z,0.80
2023-02-15T04:09:41.836Z,0.90
2023-02-15T04:12:08.707Z,0.70
2023-02-15T04:27:56.716Z,0.80
2023-02-15T04:30:25.659Z,0.80
2023-02-15T04:35:19.608Z,0.80
2023-02-15T04:40:18.689Z,0.90
2023-02-15T04:42:48.800Z,0.80
2023-02-15T04:45:15.522Z,0.80
2023-02-15T04:50:10.112Z,1.10
2023-02-15T04:59:59.912Z,0.90
2023-02-15T05:14:44.754Z,0.90
2023-02-15T05:24:51.332Z,0.90
2023-02-15T05:27:36.744Z,1.00
2023-02-15T05:30:04.449Z,1.00
2023-02-15T05:49:40.830Z,0.90
2023-02-15T05:52:07.517Z,0.90
2023-02-15T05:59:28.240Z,1.00
2023-02-15T06:31:23.066Z,1.10
2023-02-15T06:41:10.953Z,1.00
2023-02-15T06:43:38.873Z,1.00
2023-02-15T06:56:02.255Z,1.00
2023-02-15T07:00:56.003Z,1.00
2023-02-15T07:10:46.897Z,1.20
2023-02-15T07:15:40.528Z,1.10
2023-02-15T07:23:05.632Z,1.20
2023-02-15T07:25:32.324Z,1.30
2023-02-15T07:28:03.882Z,1.20
2023-02-15T07:30:31.159Z,1.20
2023-02-15T07:33:17.638Z,1.30
2023-02-15T07:35:51.650Z,1.20
2023-02-15T07:38:19.142Z,1.20
2023-02-15T07:45:41.281Z,1.50
2023-02-15T07:53:03.467Z,1.50
2023-02-15T08:00:25.787Z,1.70
2023-02-15T08:03:13.545Z,1.80
2023-02-15T08:05:44.851Z,1.90
2023-02-15T08:08:31.211Z,2.00
2023-02-15T08:11:33.592Z,2.00
2023-02-15T08:14:11.959Z,2.10
2023-02-15T08:16:47.412Z,2.20
2023-02-15T08:19:18.557Z,2.20
2023-02-15T08:21:48.071Z,2.30
2023-02-15T08:24:16.473Z,2.40
2023-02-15T08:26:45.810Z,2.40
2023-02-15T08:34:10.568Z,2.60
2023-02-15T08:36:37.166Z,2.70
2023-02-15T08:39:05.981Z,2.80
2023-02-15T08:41:35.362Z,2.90
2023-02-15T08:44:04.832Z,3.00
2023-02-15T08:46:35.259Z,3.00
2023-02-15T08:51:32.766Z,3.20
2023-02-15T08:54:02.106Z,3.20
2023-02-15T08:56:32.608Z,3.30
2023-02-15T09:01:30.292Z,3.50
2023-02-15T09:04:06.251Z,3.60
2023-02-15T09:06:33.942Z,3.70
2023-02-15T09:11:29.588Z,3.90
2023-02-15T09:14:01.755Z,4.00
2023-02-15T09:16:31.505Z,4.00
2023-02-15T09:21:26.929Z,4.30
2023-02-15T09:23:58.742Z,4.30
2023-02-15T09:26:27.227Z,4.50
2023-02-15T09:28:56.591Z,4.60
2023-02-15T09:31:26.580Z,4.60
2023-02-15T09:33:53.934Z,4.70
2023-02-15T09:36:35.220Z,4.80
2023-02-15T09:39:10.554Z,4.90
2023-02-15T09:42:16.348Z,5.00
2023-02-15T09:47:31.514Z,5.10
2023-02-15T09:50:07.016Z,5.20
2023-02-15T09:52:52.581Z,5.30
2023-02-15T09:55:36.268Z,5.40
2023-02-15T09:58:23.903Z,5.50
2023-02-15T10:03:35.153Z,5.70
2023-02-15T10:09:00.579Z,5.90
2023-02-15T10:11:50.876Z,6.00
2023-02-15T10:14:20.542Z,6.10
2023-02-15T10:16:56.985Z,6.20
2023-02-15T10:19:28.574Z,6.30
2023-02-15T10:22:19.406Z,6.30
2023-02-15T10:24:53.182Z,6.40
2023-02-15T10:27:23.024Z,6.50
2023-02-15T10:29:58.898Z,6.50
2023-02-15T10:32:30.140Z,6.60
2023-02-15T10:35:21.040Z,9.80
2023-02-15T10:38:06.835Z,6.80
2023-02-15T10:40:52.244Z,6.80
2023-02-15T10:43:30.650Z,6.90
2023-02-15T10:46:25.134Z,7.00
2023-02-15T10:49:01.876Z,7.10
2023-02-15T10:51:53.958Z,7.20
2023-02-15T10:54:37.434Z,7.20
2023-02-15T10:57:31.103Z,7.30
2023-02-15T11:05:21.408Z,7.50
2023-02-15T11:07:50.523Z,7.60
2023-02-15T11:10:36.333Z,7.70
2023-02-15T11:13:17.332Z,7.70
2023-02-15T11:15:53.863Z,7.90
2023-02-15T11:18:24.596Z,8.00
2023-02-15T11:21:13.192Z,8.00
2023-02-15T11:23:45.791Z,8.10
2023-02-15T11:26:35.067Z,8.20
2023-02-15T11:29:49.614Z,8.20
2023-02-15T11:32:39.501Z,8.30
2023-02-15T11:35:12.523Z,8.30
2023-02-15T11:37:54.534Z,8.40
2023-02-15T11:40:31.911Z,8.40
2023-02-15T11:43:08.437Z,8.40
2023-02-15T11:45:36.128Z,8.50
2023-02-15T11:48:10.559Z,8.60
2023-02-15T11:50:37.374Z,8.70
2023-02-15T11:53:19.245Z,8.80
2023-02-15T11:55:48.202Z,8.80
2023-02-15T11:58:30.992Z,8.90
2023-02-15T12:01:16.297Z,8.90
2023-02-15T12:03:52.516Z,9.00
2023-02-15T12:06:31.146Z,9.10
2023-02-15T12:09:03.873Z,9.10
2023-02-15T12:11:38.935Z,9.20
2023-02-15T12:14:10.884Z,9.20
2023-02-15T12:16:48.123Z,9.20
2023-02-15T12:19:27.047Z,9.30
2023-02-15T12:21:54.083Z,9.30
2023-02-15T12:24:25.706Z,9.50
2023-02-15T12:27:22.923Z,9.50
2023-02-15T12:30:03.282Z,9.50
2023-02-15T12:32:35.196Z,9.50
2023-02-15T12:35:10.597Z,9.60
2023-02-15T12:40:22.351Z,9.70
2023-02-15T12:42:49.347Z,9.80
2023-02-15T12:45:26.702Z,10.10
2023-02-15T12:48:16.676Z,9.80
2023-02-15T12:50:46.523Z,9.90
2023-02-15T12:53:32.318Z,10.00
2023-02-15T12:56:04.394Z,10.00
2023-02-15T12:58:32.862Z,10.10
2023-02-15T13:01:18.302Z,10.20
2023-02-15T13:04:00.239Z,10.20
2023-02-15T13:06:28.663Z,10.40
2023-02-15T13:08:59.644Z,10.30
2023-02-15T13:11:31.317Z,10.30
2023-02-15T13:14:01.295Z,10.40
2023-02-15T13:16:40.999Z,10.50
2023-02-15T13:19:16.283Z,10.50
2023-02-15T13:21:46.747Z,10.60
2023-02-15T13:24:26.753Z,10.60
2023-02-15T13:27:09.301Z,10.70
2023-02-15T13:29:45.543Z,10.70
2023-02-15T13:32:28.091Z,10.70
2023-02-15T13:35:01.334Z,10.80
2023-02-15T13:37:50.859Z,10.80
2023-02-15T13:40:26.651Z,10.90
2023-02-15T13:43:00.523Z,11.00
2023-02-15T13:45:32.122Z,11.00
2023-02-15T13:48:08.193Z,11.00
2023-02-15T13:50:49.711Z,11.10
2023-02-15T13:53:37.928Z,11.10
2023-02-15T13:56:18.898Z,11.20
2023-02-15T13:59:14.814Z,11.20
2023-02-15T14:01:49.028Z,11.30
2023-02-15T14:06:59.094Z,11.40
2023-02-15T14:09:44.535Z,11.40
2023-02-15T14:12:30.723Z,11.40
2023-02-15T14:15:09.974Z,11.40
2023-02-15T14:18:00.294Z,11.50
2023-02-15T14:20:57.838Z,11.50
2023-02-15T14:23:37.036Z,11.50
2023-02-15T14:26:20.193Z,11.60
2023-02-15T14:29:11.883Z,11.60
2023-02-15T14:31:50.188Z,11.60
2023-02-15T14:34:28.628Z,11.70
2023-02-15T14:36:56.872Z,11.70
2023-02-15T14:40:12.410Z,11.70
2023-02-15T14:42:50.284Z,11.80
2023-02-15T14:45:27.333Z,11.80
2023-02-15T14:48:12.839Z,11.80
2023-02-15T14:50:43.925Z,11.80
2023-02-15T14:53:32.933Z,11.90
2023-02-15T14:56:19.176Z,11.80
2023-02-15T14:58:53.088Z,11.80
2023-02-15T15:01:28.905Z,11.80
2023-02-15T15:04:00.964Z,11.80
2023-02-15T15:06:33.233Z,11.80
2023-02-15T15:09:22.490Z,11.80
2023-02-15T15:11:51.314Z,11.80
2023-02-15T15:14:33.308Z,11.80
2023-02-15T15:17:02.050Z,11.70
2023-02-15T15:19:52.396Z,11.70
2023-02-15T15:22:27.600Z,11.70
2023-02-15T15:24:57.362Z,11.70
2023-02-15T15:27:59.672Z,11.70
2023-02-15T15:32:56.934Z,11.40
2023-02-15T15:36:03.543Z,11.50
2023-02-15T15:39:07.967Z,11.40
2023-02-15T15:41:49.811Z,11.30
2023-02-15T15:44:43.430Z,11.30
2023-02-15T15:49:39.001Z,11.20
2023-02-15T15:52:23.277Z,11.20
2023-02-15T15:54:54.261Z,11.10
2023-02-15T15:57:33.632Z,11.10
2023-02-15T16:07:26.050Z,10.70
2023-02-15T16:10:01.623Z,10.60
2023-02-15T16:12:37.019Z,10.60
2023-02-15T16:15:17.326Z,10.50
2023-02-15T16:17:48.431Z,10.40
2023-02-15T16:20:22.763Z,10.40
2023-02-15T16:22:58.223Z,10.30
2023-02-15T16:25:27.813Z,10.20
2023-02-15T16:27:54.584Z,10.10
2023-02-15T16:30:27.002Z,10.10
2023-02-15T16:32:56.343Z,9.90
2023-02-15T16:35:24.466Z,9.90
2023-02-15T16:40:24.313Z,9.60
2023-02-15T16:42:52.575Z,9.60
2023-02-15T16:45:21.972Z,9.30
2023-02-15T16:47:53.612Z,9.40
2023-02-15T16:50:32.725Z,9.30
2023-02-15T16:53:00.089Z,9.30
2023-02-15T16:55:32.806Z,9.30
2023-02-15T16:58:04.965Z,9.20
2023-02-15T17:00:36.668Z,9.20
2023-02-15T17:03:24.499Z,10.10
2023-02-15T17:05:56.967Z,9.10
2023-02-15T17:08:31.246Z,9.10
2023-02-15T17:11:00.800Z,8.90
2023-02-15T17:13:28.666Z,8.90
2023-02-15T17:16:01.422Z,8.90
2023-02-15T17:18:31.574Z,8.80
2023-02-15T17:21:02.978Z,7.20
2023-02-15T17:23:36.695Z,8.50
2023-02-15T17:26:19.716Z,8.40
2023-02-15T17:28:53.548Z,8.30
2023-02-15T17:31:21.865Z,8.30
2023-02-15T17:36:23.348Z,8.20
2023-02-15T17:38:58.844Z,8.20
2023-02-15T17:41:25.394Z,8.10
2023-02-15T17:48:51.596Z,8.00
2023-02-15T17:51:20.342Z,8.00
2023-02-15T17:54:06.473Z,8.00
2023-02-15T17:56:33.811Z,7.90
2023-02-15T17:59:00.510Z,7.90
2023-02-15T18:04:34.040Z,7.90
2023-02-15T18:12:36.522Z,7.40
2023-02-15T18:17:34.232Z,7.30
2023-02-15T18:20:06.454Z,7.20
2023-02-15T18:22:33.840Z,7.10
2023-02-15T18:25:00.465Z,7.10
2023-02-15T18:32:32.400Z,6.90
2023-02-15T18:34:59.429Z,6.90
2023-02-15T18:37:30.930Z,6.90
2023-02-15T18:42:27.398Z,6.60
2023-02-15T18:44:56.938Z,6.70
2023-02-15T18:47:24.430Z,6.70
2023-02-15T18:52:21.710Z,6.50
2023-02-15T18:54:53.362Z,6.50
2023-02-15T19:02:18.661Z,6.40
2023-02-15T19:04:46.603Z,6.20
2023-02-15T19:07:24.120Z,6.20
2023-02-15T19:09:54.666Z,6.20
2023-02-15T19:17:20.592Z,6.10
2023-02-15T19:19:48.118Z,6.10
2023-02-15T19:22:21.750Z,6.10
2023-02-15T19:27:31.693Z,6.10
2023-02-15T19:30:00.048Z,6.00
2023-02-15T19:37:42.564Z,5.90
2023-02-15T19:40:24.313Z,5.80
2023-02-15T19:45:21.423Z,5.90
2023-02-15T19:50:21.920Z,5.70
2023-02-15T19:55:27.950Z,5.80
2023-02-15T19:57:56.890Z,5.80
2023-02-15T20:00:29.145Z,5.80
2023-02-15T20:02:56.590Z,5.80
2023-02-15T20:07:52.250Z,5.70
2023-02-15T20:15:22.287Z,5.40
2023-02-15T20:17:50.212Z,5.50
2023-02-15T20:22:47.952Z,5.50
2023-02-15T20:25:25.678Z,5.40
2023-02-15T20:30:28.668Z,5.40
2023-02-15T20:35:25.467Z,5.40
2023-02-15T20:37:54.352Z,5.40
2023-02-15T20:42:48.660Z,5.30
2023-02-15T20:45:23.645Z,5.40
2023-02-15T20:47:51.558Z,5.30
2023-02-15T20:50:21.852Z,5.40
2023-02-15T20:52:50.359Z,5.40
2023-02-15T20:55:19.800Z,5.30
2023-02-15T21:00:19.487Z,5.30
2023-02-15T21:02:48.643Z,5.10
2023-02-15T21:05:21.543Z,5.10
2023-02-15T21:07:50.345Z,5.00
2023-02-15T21:10:18.957Z,4.90
2023-02-15T21:12:46.511Z,4.90
2023-02-15T21:15:30.939Z,4.90
2023-02-15T21:17:59.571Z,4.80
2023-02-15T21:20:28.199Z,4.80
2023-02-15T21:22:56.056Z,4.80
2023-02-15T21:25:30.043Z,4.70
2023-02-15T21:30:25.028Z,4.70
2023-02-15T21:35:20.228Z,4.60
2023-02-15T21:37:49.811Z,4.60
2023-02-15T21:40:26.966Z,4.60
2023-02-15T21:45:58.417Z,4.60
2023-02-15T21:56:21.639Z,4.60
2023-02-15T22:01:23.142Z,4.60
2023-02-15T22:03:51.222Z,4.50
2023-02-15T22:08:45.650Z,4.40
2023-02-15T22:11:15.120Z,4.50
2023-02-15T22:13:43.521Z,4.40
2023-02-15T22:16:16.786Z,4.40
2023-02-15T22:21:11.173Z,4.30
2023-02-15T22:23:38.651Z,4.40
2023-02-15T22:26:11.699Z,4.30
2023-02-15T22:28:39.891Z,4.30
2023-02-15T22:31:12.677Z,4.30
2023-02-15T22:41:04.011Z,4.10
2023-02-15T22:43:38.832Z,4.10
2023-02-15T22:46:08.241Z,4.00
2023-02-15T22:48:35.606Z,3.90
2023-02-15T22:56:07.117Z,3.80
2023-02-15T22:58:34.774Z,3.70
2023-02-15T23:01:02.506Z,3.60
2023-02-15T23:03:31.270Z,3.60
2023-02-15T23:05:57.865Z,3.60
2023-02-15T23:10:56.512Z,3.50
2023-02-15T23:13:26.855Z,3.50
2023-02-15T23:15:56.948Z,3.40
2023-02-15T23:21:00.317Z,3.50
2023-02-15T23:23:39.242Z,3.50
2023-02-15T23:26:15.942Z,3.50
2023-02-15T23:31:24.693Z,3.50
2023-02-15T23:33:52.752Z,3.50
2023-02-15T23:36:28.487Z,3.50
2023-02-15T23:38:57.264Z,3.40
2023-02-15T23:41:30.048Z,3.40
2023-02-15T23:43:59.552Z,3.40
2023-02-15T23:46:56.436Z,3.40
2023-02-15T23:49:23.661Z,3.30
2023-02-15T23:51:55.433Z,3.30
2023-02-15T23:54:24.567Z,3.20
2023-02-15T23:57:00.741Z,3.20
2023-02-15T23:59:30.123Z,3.20
